Time;durP1;ratioP1;P1;durP2;ratioP2;P2;SDS_P1;SDS_P2;PMS_P1;PMS_P2;Temp;Humidity;BMP_temperature;BMP_pressure;BME280_temperature;BME280_humidity;BME280_pressure;Samples;Min_cycle;Max_cycle;Signal;HPM_P1;HPM_P2
2022/11/08 00:01:49;;;;;;;;;;;;;;;;;;5050111;28;19915;-63
2022/11/08 00:04:15;;;;;;;;;;;;;;;;;;5050827;28;19912;-63
2022/11/08 00:14:55;;;;;;;;;;;;;;;;;;5050308;28;19966;-60
2022/11/08 00:17:21;;;;;;;;;;;;;;;;;;5050364;28;19913;-62
2022/11/08 00:19:47;;;;;;;;;;;;;;;;;;5050371;28;19913;-62
2022/11/08 00:22:13;;;;;;;;;;;;;;;;;;5050375;28;19916;-62
2022/11/08 00:24:39;;;;;;;;;;;;;;;;;;5050215;28;19919;-62
2022/11/08 00:27:05;;;;;;;;;;;;;;;;;;5050351;28;19924;-62
2022/11/08 00:29:31;;;;;;;;;;;;;;;;;;5049963;28;20507;-62
2022/11/08 00:31:56;;;;;;;;;;;;;;;;;;5050458;28;19916;-62
2022/11/08 00:34:22;;;;;;;;;;;;;;;;;;5049895;28;19909;-62
2022/11/08 00:36:48;;;;;;;;;;;;;;;;;;5044540;28;19917;-62
2022/11/08 00:39:14;;;;;;;;;;;;;;;;;;5046674;28;19955;-62
2022/11/08 00:41:40;;;;;;;;;;;;;;;;;;5047270;28;19908;-62
2022/11/08 00:44:06;;;;;;;;;;;;;;;;;;5049909;28;19909;-62
2022/11/08 00:46:32;;;;;;;;;;;;;;;;;;5050255;28;19995;-62
2022/11/08 00:48:58;;;;;;;;;;;;;;;;;;5049697;28;20332;-62
2022/11/08 00:51:23;;;;;;;;;;;;;;;;;;5049324;28;19919;-61
2022/11/08 00:53:49;;;;;;;;;;;;;;;;;;5048371;28;20425;-62
2022/11/08 00:56:15;;;;;;;;;;;;;;;;;;5045425;28;19963;-62
2022/11/08 00:58:42;;;;;;;;;;;;;;;;;;5049507;28;20493;-62
2022/11/08 01:01:08;;;;;;;;;;;;;;;;;;5049532;28;19924;-62
2022/11/08 01:03:34;;;;;;;;;;;;;;;;;;5048028;28;19908;-62
2022/11/08 01:06:00;;;;;;;;;;;;;;;;;;5049501;28;19919;-63
2022/11/08 01:08:26;;;;;;;;;;;;;;;;;;5049510;28;20154;-62
2022/11/08 01:10:52;;;;;;;;;;;;;;;;;;5044963;28;19919;-62
2022/11/08 01:13:18;;;;;;;;;;;;;;;;;;5049485;28;20365;-62
2022/11/08 01:15:44;;;;;;;;;;;;;;;;;;5049779;28;19987;-61
2022/11/08 01:18:09;;;;;;;;;;;;;;;;;;5049770;28;19913;-62
2022/11/08 01:20:35;;;;;;;;;;;;;;;;;;5049469;28;19919;-62
2022/11/08 01:23:01;;;;;;;;;;;;;;;;;;5049582;28;20384;-62
2022/11/08 01:25:27;;;;;;;;;;;;;;;;;;5049003;28;19995;-61
2022/11/08 01:27:53;;;;;;;;;;;;;;;;;;5049318;28;19917;-62
2022/11/08 01:30:19;;;;;;;;;;;;;;;;;;5049687;28;19932;-62
2022/11/08 01:32:45;;;;;;;;;;;;;;;;;;5049483;28;19915;-62
2022/11/08 01:35:11;;;;;;;;;;;;;;;;;;5049636;28;19916;-63
2022/11/08 01:37:36;;;;;;;;;;;;;;;;;;5049774;28;20399;-62
2022/11/08 01:40:02;;;;;;;;;;;;;;;;;;5049055;28;19952;-62
2022/11/08 01:42:28;;;;;;;;;;;;;;;;;;5044065;28;19913;-62
2022/11/08 01:44:54;;;;;;;;;;;;;;;;;;5049745;28;19954;-61
2022/11/08 01:47:20;;;;;;;;;;;;;;;;;;5042316;28;20032;-62
2022/11/08 01:49:46;;;;;;;;;;;;;;;;;;5048941;28;19913;-61
2022/11/08 01:52:12;;;;;;;;;;;;;;;;;;5048125;28;19965;-61
2022/11/08 01:54:38;;;;;;;;;;;;;;;;;;5049013;28;20362;-61
2022/11/08 01:57:04;;;;;;;;;;;;;;;;;;5048961;28;19999;-61
2022/11/08 01:59:30;;;;;;;;;;;;;;;;;;5049544;28;19913;-61
2022/11/08 02:01:56;;;;;;;;;;;;;;;;;;5049491;28;19913;-62
2022/11/08 02:04:24;;;;;;;;;;;;;;;;;;5048750;28;20550;-62
2022/11/08 02:06:50;;;;;;;;;;;;;;;;;;5049149;28;19991;-62
2022/11/08 02:09:16;;;;;;;;;;;;;;;;;;5049238;28;20008;-62
2022/11/08 02:11:42;;;;;;;;;;;;;;;;;;5048452;28;20011;-61
2022/11/08 02:14:08;;;;;;;;;;;;;;;;;;5049198;28;19911;-62
2022/11/08 02:16:34;;;;;;;;;;;;;;;;;;5052063;28;19917;-61
2022/11/08 02:18:59;;;;;;;;;;;;;;;;;;5052765;28;19943;-62
2022/11/08 02:21:25;;;;;;;;;;;;;;;;;;5052732;28;20366;-62
2022/11/08 02:23:51;;;;;;;;;;;;;;;;;;5045860;28;19995;-63
2022/11/08 02:26:17;;;;;;;;;;;;;;;;;;5051617;28;19931;-62
2022/11/08 02:28:43;;;;;;;;;;;;;;;;;;5052744;28;19971;-62
2022/11/08 02:31:09;;;;;;;;;;;;;;;;;;5052267;28;19912;-62
2022/11/08 02:33:35;;;;;;;;;;;;;;;;;;5052043;28;20378;-62
2022/11/08 02:36:01;;;;;;;;;;;;;;;;;;5052255;28;19919;-62
2022/11/08 02:38:27;;;;;;;;;;;;;;;;;;5052541;28;19915;-62
2022/11/08 02:40:53;;;;;;;;;;;;;;;;;;5051952;28;19920;-62
2022/11/08 02:43:19;;;;;;;;;;;;;;;;;;5052269;28;19944;-61
2022/11/08 02:45:44;;;;;;;;;;;;;;;;;;5051496;28;19908;-62
2022/11/08 02:48:10;;;;;;;;;;;;;;;;;;5052156;28;19921;-62
2022/11/08 02:50:36;;;;;;;;;;;;;;;;;;5051934;28;20373;-62
2022/11/08 02:53:02;;;;;;;;;;;;;;;;;;5052382;28;19945;-62
2022/11/08 02:55:28;;;;;;;;;;;;;;;;;;5051445;28;19912;-62
2022/11/08 02:57:54;;;;;;;;;;;;;;;;;;5052190;28;19913;-62
2022/11/08 03:00:20;;;;;;;;;;;;;;;;;;5051648;28;19966;-62
2022/11/08 03:02:50;;;;;;;;;;;;;;;;;;5051654;28;19928;-62
2022/11/08 03:05:16;;;;;;;;;;;;;;;;;;5052354;28;20540;-62
2022/11/08 03:07:42;;;;;;;;;;;;;;;;;;5051775;28;19921;-62
2022/11/08 03:10:07;;;;;;;;;;;;;;;;;;5051220;28;20326;-61
2022/11/08 03:12:33;;;;;;;;;;;;;;;;;;5051764;28;19916;-62
2022/11/08 03:14:59;;;;;;;;;;;;;;;;;;5051910;28;19920;-62
2022/11/08 03:17:25;;;;;;;;;;;;;;;;;;5051482;28;19912;-62
2022/11/08 03:19:52;;;;;;;;;;;;;;;;;;5051779;28;19945;-63
2022/11/08 03:22:18;;;;;;;;;;;;;;;;;;5051791;28;20373;-62
2022/11/08 03:24:44;;;;;;;;;;;;;;;;;;5051295;28;19916;-62
2022/11/08 03:27:10;;;;;;;;;;;;;;;;;;5050615;28;19924;-62
2022/11/08 03:29:36;;;;;;;;;;;;;;;;;;5051824;28;19913;-62
2022/11/08 03:32:02;;;;;;;;;;;;;;;;;;5051122;28;19983;-62
2022/11/08 03:34:27;;;;;;;;;;;;;;;;;;5051391;28;19920;-62
2022/11/08 03:36:53;;;;;;;;;;;;;;;;;;5051076;28;19909;-62
2022/11/08 03:39:19;;;;;;;;;;;;;;;;;;5051151;28;19913;-61
2022/11/08 03:41:45;;;;;;;;;;;;;;;;;;5048582;28;20074;-62
2022/11/08 03:44:11;;;;;;;;;;;;;;;;;;5046168;28;19913;-62
2022/11/08 03:46:37;;;;;;;;;;;;;;;;;;5049647;28;19921;-62
2022/11/08 03:49:03;;;;;;;;;;;;;;;;;;5051312;28;19958;-61
2022/11/08 03:51:29;;;;;;;;;;;;;;;;;;5050902;28;20604;-61
2022/11/08 03:53:54;;;;;;;;;;;;;;;;;;5050627;28;19952;-61
2022/11/08 03:56:20;;;;;;;;;;;;;;;;;;5051196;28;19916;-61
2022/11/08 03:58:46;;;;;;;;;;;;;;;;;;5050742;28;19909;-61
2022/11/08 04:01:12;;;;;;;;;;;;;;;;;;5050550;28;19994;-61
2022/11/08 04:03:38;;;;;;;;;;;;;;;;;;5051034;28;19962;-61
2022/11/08 04:06:04;;;;;;;;;;;;;;;;;;5050649;28;19919;-61
2022/11/08 04:08:30;;;;;;;;;;;;;;;;;;5050414;28;19920;-61
2022/11/08 04:10:56;;;;;;;;;;;;;;;;;;5050845;28;19909;-62
2022/11/08 04:16:06;;;;;;;;;;;;;;;;;;5048503;28;20036;-60
2022/11/08 04:21:21;;;;;;;;;;;;;;;;;;5050850;28;20407;-62
2022/11/08 04:23:46;;;;;;;;;;;;;;;;;;5050128;28;19936;-61
2022/11/08 04:26:12;;;;;;;;;;;;;;;;;;5050101;28;19948;-60
2022/11/08 04:28:38;;;;;;;;;;;;;;;;;;5050226;28;20015;-61
2022/11/08 04:31:04;;;;;;;;;;;;;;;;;;5050712;28;20301;-61
2022/11/08 04:33:30;;;;;;;;;;;;;;;;;;5050067;28;19916;-61
2022/11/08 04:35:56;;;;;;;;;;;;;;;;;;5049791;28;19913;-59
2022/11/08 04:38:22;;;;;;;;;;;;;;;;;;5031951;28;19913;-62
2022/11/08 04:40:48;;;;;;;;;;;;;;;;;;5049784;28;19909;-61
2022/11/08 04:43:14;;;;;;;;;;;;;;;;;;5050600;28;19997;-62
2022/11/08 04:45:39;;;;;;;;;;;;;;;;;;5050282;28;19912;-61
2022/11/08 04:48:05;;;;;;;;;;;;;;;;;;5049573;28;19928;-61
2022/11/08 04:50:31;;;;;;;;;;;;;;;;;;5050038;28;19917;-61
2022/11/08 04:52:57;;;;;;;;;;;;;;;;;;5050784;28;20361;-62
2022/11/08 04:55:23;;;;;;;;;;;;;;;;;;5046972;28;19909;-61
2022/11/08 04:57:49;;;;;;;;;;;;;;;;;;5049789;28;20004;-61
2022/11/08 05:00:15;;;;;;;;;;;;;;;;;;5050070;28;19912;-62
2022/11/08 05:02:41;;;;;;;;;;;;;;;;;;5044972;28;19913;-61
2022/11/08 05:05:06;;;;;;;;;;;;;;;;;;5049498;28;19915;-61
2022/11/08 05:07:32;;;;;;;;;;;;;;;;;;5049740;28;20298;-62
2022/11/08 05:09:58;;;;;;;;;;;;;;;;;;5049778;28;19920;-62
2022/11/08 05:12:24;;;;;;;;;;;;;;;;;;5049636;28;20266;-62
2022/11/08 05:14:50;;;;;;;;;;;;;;;;;;5049707;28;19917;-63
2022/11/08 05:17:16;;;;;;;;;;;;;;;;;;5050073;28;20519;-61
2022/11/08 05:25:11;;;;;;;;;;;;;;;;;;5049601;28;19919;-61
2022/11/08 05:27:37;;;;;;;;;;;;;;;;;;5049308;28;20015;-62
2022/11/08 05:30:03;;;;;;;;;;;;;;;;;;5049649;28;19912;-62
2022/11/08 05:32:29;;;;;;;;;;;;;;;;;;5049042;28;19920;-61
2022/11/08 05:34:55;;;;;;;;;;;;;;;;;;5047180;28;19962;-62
2022/11/08 05:37:21;;;;;;;;;;;;;;;;;;5049342;28;19909;-62
2022/11/08 05:39:47;;;;;;;;;;;;;;;;;;5046609;28;19920;-62
2022/11/08 05:42:13;;;;;;;;;;;;;;;;;;5048902;28;19962;-61
2022/11/08 05:44:39;;;;;;;;;;;;;;;;;;5049592;28;19913;-62
2022/11/08 05:47:05;;;;;;;;;;;;;;;;;;5048446;28;19983;-62
2022/11/08 05:49:30;;;;;;;;;;;;;;;;;;5048871;28;19913;-62
2022/11/08 05:51:56;;;;;;;;;;;;;;;;;;5052751;28;20289;-62
2022/11/08 05:54:22;;;;;;;;;;;;;;;;;;5052893;28;19999;-62
2022/11/08 05:56:48;;;;;;;;;;;;;;;;;;5053101;28;20494;-61
2022/11/08 05:59:14;;;;;;;;;;;;;;;;;;5053050;28;19913;-62
2022/11/08 06:01:40;;;;;;;;;;;;;;;;;;5052829;28;19952;-61
2022/11/08 06:04:06;;;;;;;;;;;;;;;;;;5053157;28;19913;-61
2022/11/08 06:06:32;;;;;;;;;;;;;;;;;;5052711;28;19913;-62
2022/11/08 06:08:57;;;;;;;;;;;;;;;;;;5052653;28;20301;-62
2022/11/08 06:11:23;;;;;;;;;;;;;;;;;;5052378;28;19908;-62
2022/11/08 06:13:49;;;;;;;;;;;;;;;;;;5052162;28;19951;-62
2022/11/08 06:16:15;;;;;;;;;;;;;;;;;;5049088;28;20397;-62
2022/11/08 06:18:41;;;;;;;;;;;;;;;;;;5051766;28;20377;-63
2022/11/08 06:21:07;;;;;;;;;;;;;;;;;;5052719;28;20012;-61
2022/11/08 06:23:33;;;;;;;;;;;;;;;;;;5051825;28;19908;-62
2022/11/08 06:25:59;;;;;;;;;;;;;;;;;;5051985;28;19913;-61
2022/11/08 06:28:25;;;;;;;;;;;;;;;;;;5052422;28;19928;-61
2022/11/08 06:30:50;;;;;;;;;;;;;;;;;;5052480;28;20495;-61
2022/11/08 06:33:16;;;;;;;;;;;;;;;;;;5051999;28;19909;-61
2022/11/08 06:35:42;;;;;;;;;;;;;;;;;;5052279;28;19960;-64
2022/11/08 06:38:08;;;;;;;;;;;;;;;;;;5051759;28;19954;-61
2022/11/08 06:40:35;;;;;;;;;;;;;;;;;;5052574;28;20345;-62
2022/11/08 06:43:01;;;;;;;;;;;;;;;;;;5051995;28;19919;-62
2022/11/08 06:45:27;;;;;;;;;;;;;;;;;;5048568;28;19917;-62
2022/11/08 06:47:53;;;;;;;;;;;;;;;;;;5044619;28;20380;-62
2022/11/08 06:50:19;;;;;;;;;;;;;;;;;;5051472;28;20013;-72
2022/11/08 06:52:45;;;;;;;;;;;;;;;;;;5048573;28;19913;-72
2022/11/08 06:55:10;;;;;;;;;;;;;;;;;;5051161;28;19913;-72
2022/11/08 06:57:36;;;;;;;;;;;;;;;;;;5029491;28;19913;-72
2022/11/08 07:00:02;;;;;;;;;;;;;;;;;;5052607;28;19917;-74
2022/11/08 07:02:28;;;;;;;;;;;;;;;;;;5050382;28;19912;-73
2022/11/08 07:04:54;;;;;;;;;;;;;;;;;;5033782;28;19920;-72
2022/11/08 07:07:20;;;;;;;;;;;;;;;;;;5051758;28;19913;-73
2022/11/08 07:09:46;;;;;;;;;;;;;;;;;;5051821;28;19913;-73
2022/11/08 07:12:12;;;;;;;;;;;;;;;;;;5051907;28;20007;-82
2022/11/08 07:14:38;;;;;;;;;;;;;;;;;;5045807;28;19917;-81
2022/11/08 07:17:04;;;;;;;;;;;;;;;;;;5049560;28;19948;-80
2022/11/08 07:19:30;;;;;;;;;;;;;;;;;;5044313;28;20031;-80
2022/11/08 07:21:56;;;;;;;;;;;;;;;;;;5046597;28;19988;-80
2022/11/08 07:24:21;;;;;;;;;;;;;;;;;;5050958;28;19915;-80
2022/11/08 07:26:47;;;;;;;;;;;;;;;;;;5050736;28;19924;-80
2022/11/08 07:29:13;;;;;;;;;;;;;;;;;;5050959;28;20011;-80
2022/11/08 07:31:39;;;;;;;;;;;;;;;;;;5049970;28;19955;-82
2022/11/08 07:34:05;;;;;;;;;;;;;;;;;;5051598;28;19937;-78
2022/11/08 07:36:31;;;;;;;;;;;;;;;;;;5048260;28;19917;-81
2022/11/08 07:38:57;;;;;;;;;;;;;;;;;;5048418;28;20285;-82
2022/11/08 07:41:23;;;;;;;;;;;;;;;;;;5050542;28;20007;-81
2022/11/08 07:43:48;;;;;;;;;;;;;;;;;;5047036;28;19935;-82
2022/11/08 07:46:14;;;;;;;;;;;;;;;;;;5047670;28;19916;-81
2022/11/08 07:48:40;;;;;;;;;;;;;;;;;;5046886;28;19921;-81
2022/11/08 07:51:06;;;;;;;;;;;;;;;;;;5044733;28;20007;-81
2022/11/08 07:53:32;;;;;;;;;;;;;;;;;;5051770;28;19909;-81
2022/11/08 07:55:58;;;;;;;;;;;;;;;;;;5052545;28;19909;-83
2022/11/08 07:58:24;;;;;;;;;;;;;;;;;;5052806;28;20003;-82
2022/11/08 08:00:50;;;;;;;;;;;;;;;;;;5051405;28;19916;-82
2022/11/08 08:03:16;;;;;;;;;;;;;;;;;;5052738;28;19913;-81
2022/11/08 08:05:41;;;;;;;;;;;;;;;;;;5052232;28;20301;-82
2022/11/08 08:08:07;;;;;;;;;;;;;;;;;;5051597;28;20293;-81
2022/11/08 08:10:33;;;;;;;;;;;;;;;;;;5052036;28;19915;-82
2022/11/08 08:12:59;;;;;;;;;;;;;;;;;;5051856;28;19990;-80
2022/11/08 08:15:25;;;;;;;;;;;;;;;;;;5052129;28;19956;-80
2022/11/08 08:17:51;;;;;;;;;;;;;;;;;;5049912;28;19916;-80
2022/11/08 08:20:17;;;;;;;;;;;;;;;;;;5052587;28;19913;-82
2022/11/08 08:22:43;;;;;;;;;;;;;;;;;;5052073;28;19913;-81
2022/11/08 08:25:09;;;;;;;;;;;;;;;;;;5050840;28;19913;-82
2022/11/08 08:27:35;;;;;;;;;;;;;;;;;;5051027;28;19928;-81
2022/11/08 08:30:01;;;;;;;;;;;;;;;;;;5051792;28;20011;-82
2022/11/08 08:32:27;;;;;;;;;;;;;;;;;;5052096;28;19909;-81
2022/11/08 08:34:53;;;;;;;;;;;;;;;;;;5051504;28;20340;-81
2022/11/08 08:37:19;;;;;;;;;;;;;;;;;;5052287;28;19957;-81
2022/11/08 08:39:45;;;;;;;;;;;;;;;;;;5051688;28;20280;-81
2022/11/08 08:42:11;;;;;;;;;;;;;;;;;;5051352;28;19908;-82
2022/11/08 08:44:37;;;;;;;;;;;;;;;;;;5051352;28;19920;-81
2022/11/08 08:47:03;;;;;;;;;;;;;;;;;;5051948;28;20261;-81
2022/11/08 08:49:28;;;;;;;;;;;;;;;;;;5049026;28;20007;-81
2022/11/08 08:51:54;;;;;;;;;;;;;;;;;;5050657;28;20396;-81
2022/11/08 08:54:20;;;;;;;;;;;;;;;;;;5050745;28;19913;-81
2022/11/08 08:56:46;;;;;;;;;;;;;;;;;;5051062;28;19916;-81
2022/11/08 08:59:13;;;;;;;;;;;;;;;;;;5051156;28;19916;-81
2022/11/08 09:01:39;;;;;;;;;;;;;;;;;;5050404;28;19913;-81
2022/11/08 09:04:05;;;;;;;;;;;;;;;;;;5051229;28;19990;-81
2022/11/08 09:06:31;;;;;;;;;;;;;;;;;;5050894;28;19982;-81
2022/11/08 09:08:57;;;;;;;;;;;;;;;;;;5051067;28;19974;-81
2022/11/08 09:11:22;;;;;;;;;;;;;;;;;;5051383;28;19913;-81
2022/11/08 09:13:48;;;;;;;;;;;;;;;;;;5049925;28;19917;-81
2022/11/08 09:16:14;;;;;;;;;;;;;;;;;;5032840;28;20364;-81
2022/11/08 09:18:40;;;;;;;;;;;;;;;;;;5051323;28;19909;-81
2022/11/08 09:21:06;;;;;;;;;;;;;;;;;;5051569;28;19927;-81
2022/11/08 09:23:32;;;;;;;;;;;;;;;;;;5050964;28;19996;-80
2022/11/08 09:25:58;;;;;;;;;;;;;;;;;;5049641;28;20439;-81
2022/11/08 09:28:24;;;;;;;;;;;;;;;;;;5051000;28;19921;-81
2022/11/08 09:30:50;;;;;;;;;;;;;;;;;;5051353;28;20007;-81
2022/11/08 09:33:15;;;;;;;;;;;;;;;;;;5051394;28;20274;-81
2022/11/08 09:35:41;;;;;;;;;;;;;;;;;;5051032;28;19948;-81
2022/11/08 09:38:07;;;;;;;;;;;;;;;;;;5050573;28;20343;-80
2022/11/08 09:40:33;;;;;;;;;;;;;;;;;;5050889;28;20424;-81
2022/11/08 09:42:59;;;;;;;;;;;;;;;;;;5049927;28;19909;-81
2022/11/08 09:45:25;;;;;;;;;;;;;;;;;;5050993;28;20405;-81
2022/11/08 09:47:51;;;;;;;;;;;;;;;;;;5050644;28;19921;-81
2022/11/08 09:50:17;;;;;;;;;;;;;;;;;;5051325;28;20334;-81
2022/11/08 09:52:43;;;;;;;;;;;;;;;;;;5051119;28;20003;-81
2022/11/08 09:55:09;;;;;;;;;;;;;;;;;;5050203;28;19913;-81
2022/11/08 09:57:35;;;;;;;;;;;;;;;;;;5050969;28;19940;-82
2022/11/08 10:00:01;;;;;;;;;;;;;;;;;;5051049;28;19917;-81
2022/11/08 10:02:27;;;;;;;;;;;;;;;;;;5049920;28;19956;-81
2022/11/08 10:04:53;;;;;;;;;;;;;;;;;;5033287;28;19962;-82
2022/11/08 10:07:19;;;;;;;;;;;;;;;;;;5050256;28;19913;-81
2022/11/08 10:09:45;;;;;;;;;;;;;;;;;;5044803;28;20366;-81
2022/11/08 10:12:11;;;;;;;;;;;;;;;;;;5050660;28;19915;-81
2022/11/08 10:14:37;;;;;;;;;;;;;;;;;;5050176;28;19909;-81
2022/11/08 10:17:02;;;;;;;;;;;;;;;;;;5050779;28;19958;-82
2022/11/08 10:19:33;;;;;;;;;;;;;;;;;;5050667;28;19917;-81
2022/11/08 10:21:59;;;;;;;;;;;;;;;;;;5050136;28;19974;-82
2022/11/08 10:24:25;;;;;;;;;;;;;;;;;;5049457;28;20336;-82
2022/11/08 10:26:51;;;;;;;;;;;;;;;;;;5050899;28;19968;-81
2022/11/08 10:29:17;;;;;;;;;;;;;;;;;;5050696;28;19924;-82
2022/11/08 10:31:43;;;;;;;;;;;;;;;;;;5049481;28;19913;-80
2022/11/08 10:34:09;;;;;;;;;;;;;;;;;;5049403;28;19951;-82
2022/11/08 10:36:35;;;;;;;;;;;;;;;;;;5041016;28;19917;-72
2022/11/08 10:39:01;;;;;;;;;;;;;;;;;;5044245;28;19912;-79
2022/11/08 10:41:27;;;;;;;;;;;;;;;;;;5032719;28;19920;-75
2022/11/08 10:43:53;;;;;;;;;;;;;;;;;;5050250;28;20293;-79
2022/11/08 10:46:19;;;;;;;;;;;;;;;;;;5049480;28;19921;-80
2022/11/08 10:48:44;;;;;;;;;;;;;;;;;;5050347;28;20520;-80
2022/11/08 10:51:10;;;;;;;;;;;;;;;;;;5045932;28;19924;-81
2022/11/08 10:53:36;;;;;;;;;;;;;;;;;;5050047;28;20281;-81
2022/11/08 10:56:03;;;;;;;;;;;;;;;;;;5050538;28;19992;-82
2022/11/08 10:58:28;;;;;;;;;;;;;;;;;;5050168;28;20011;-83
2022/11/08 11:00:54;;;;;;;;;;;;;;;;;;5049991;28;20404;-77
2022/11/08 11:03:22;;;;;;;;;;;;;;;;;;5052287;28;19926;-75
2022/11/08 11:05:47;;;;;;;;;;;;;;;;;;5050140;28;19964;-76
2022/11/08 11:08:17;;;;;;;;;;;;;;;;;;5049673;28;20034;-76
2022/11/08 11:10:43;;;;;;;;;;;;;;;;;;5049840;28;19913;-72
2022/11/08 11:13:09;;;;;;;;;;;;;;;;;;5050031;28;19928;-77
2022/11/08 11:15:35;;;;;;;;;;;;;;;;;;5050228;28;20018;-73
2022/11/08 11:18:01;;;;;;;;;;;;;;;;;;5048939;28;19923;-75
2022/11/08 11:20:27;;;;;;;;;;;;;;;;;;5049481;28;19908;-78
2022/11/08 11:22:53;;;;;;;;;;;;;;;;;;5049013;28;19916;-78
2022/11/08 11:25:18;;;;;;;;;;;;;;;;;;5049712;28;19913;-82
2022/11/08 11:27:44;;;;;;;;;;;;;;;;;;5048944;28;20409;-83
2022/11/08 11:30:10;;;;;;;;;;;;;;;;;;5031828;28;19940;-81
2022/11/08 11:32:38;;;;;;;;;;;;;;;;;;5046773;28;19923;-75
2022/11/08 11:35:04;;;;;;;;;;;;;;;;;;5049517;28;19962;-83
2022/11/08 11:37:30;;;;;;;;;;;;;;;;;;5045159;28;19913;-70
2022/11/08 11:39:56;;;;;;;;;;;;;;;;;;5048943;28;19955;-82
2022/11/08 11:42:22;;;;;;;;;;;;;;;;;;5049147;28;19917;-83
2022/11/08 11:44:47;;;;;;;;;;;;;;;;;;5048931;28;19943;-81
2022/11/08 11:47:13;;;;;;;;;;;;;;;;;;5043896;28;19913;-83
2022/11/08 11:49:39;;;;;;;;;;;;;;;;;;5048247;28;19947;-81
2022/11/08 11:52:05;;;;;;;;;;;;;;;;;;5049094;28;19917;-81
2022/11/08 11:54:31;;;;;;;;;;;;;;;;;;5042336;28;19923;-83
2022/11/08 11:56:57;;;;;;;;;;;;;;;;;;5043939;28;19917;-82
2022/11/08 11:59:23;;;;;;;;;;;;;;;;;;5046401;28;20015;-82
2022/11/08 12:01:49;;;;;;;;;;;;;;;;;;5044202;28;19947;-83
2022/11/08 12:04:15;;;;;;;;;;;;;;;;;;5044298;28;19948;-84
2022/11/08 12:06:41;;;;;;;;;;;;;;;;;;5045974;28;19964;-83
2022/11/08 12:09:07;;;;;;;;;;;;;;;;;;5049058;28;20178;-84
2022/11/08 12:11:33;;;;;;;;;;;;;;;;;;5046898;28;19944;-84
2022/11/08 12:13:59;;;;;;;;;;;;;;;;;;5046442;28;19948;-81
2022/11/08 12:16:25;;;;;;;;;;;;;;;;;;5042898;28;19917;-82
2022/11/08 12:18:51;;;;;;;;;;;;;;;;;;5046585;28;19917;-82
2022/11/08 12:21:16;;;;;;;;;;;;;;;;;;5046491;28;20023;-75
2022/11/08 12:23:43;;;;;;;;;;;;;;;;;;5048541;28;19924;-81
2022/11/08 12:26:09;;;;;;;;;;;;;;;;;;5046915;28;20454;-82
2022/11/08 12:28:35;;;;;;;;;;;;;;;;;;5045986;28;19925;-82
2022/11/08 12:31:01;;;;;;;;;;;;;;;;;;5045733;28;19917;-83
2022/11/08 12:33:26;;;;;;;;;;;;;;;;;;5048842;28;20431;-83
2022/11/08 12:35:52;;;;;;;;;;;;;;;;;;5047822;28;19932;-82
2022/11/08 12:38:18;;;;;;;;;;;;;;;;;;5048434;28;19920;-83
2022/11/08 12:40:44;;;;;;;;;;;;;;;;;;5048494;28;19913;-82
2022/11/08 12:43:10;;;;;;;;;;;;;;;;;;5048825;28;20438;-83
2022/11/08 12:45:36;;;;;;;;;;;;;;;;;;5048630;28;19920;-82
2022/11/08 12:48:02;;;;;;;;;;;;;;;;;;5048422;28;20390;-83
2022/11/08 12:50:28;;;;;;;;;;;;;;;;;;5047981;28;20289;-82
2022/11/08 12:52:54;;;;;;;;;;;;;;;;;;5048153;28;20394;-76
2022/11/08 12:55:20;;;;;;;;;;;;;;;;;;5048210;28;19999;-81
2022/11/08 12:57:46;;;;;;;;;;;;;;;;;;5047971;28;19917;-82
2022/11/08 13:00:12;;;;;;;;;;;;;;;;;;5047117;28;19913;-82
2022/11/08 13:02:38;;;;;;;;;;;;;;;;;;5047346;28;20007;-83
2022/11/08 13:05:04;;;;;;;;;;;;;;;;;;5043380;28;19924;-82
2022/11/08 13:07:30;;;;;;;;;;;;;;;;;;5047569;28;19917;-82
2022/11/08 13:09:56;;;;;;;;;;;;;;;;;;5048051;28;19917;-74
2022/11/08 13:12:22;;;;;;;;;;;;;;;;;;5048162;28;20464;-81
2022/11/08 13:14:47;;;;;;;;;;;;;;;;;;5047140;28;19921;-81
2022/11/08 13:17:13;;;;;;;;;;;;;;;;;;5048201;28;20003;-81
2022/11/08 13:19:39;;;;;;;;;;;;;;;;;;5047124;28;19920;-81
2022/11/08 13:22:05;;;;;;;;;;;;;;;;;;5046704;28;19916;-80
2022/11/08 13:24:32;;;;;;;;;;;;;;;;;;5047685;28;19913;-82
2022/11/08 13:26:58;;;;;;;;;;;;;;;;;;5047207;28;19925;-81
2022/11/08 13:29:24;;;;;;;;;;;;;;;;;;5047462;28;19921;-79
2022/11/08 13:31:50;;;;;;;;;;;;;;;;;;5047456;28;19978;-82
2022/11/08 13:34:16;;;;;;;;;;;;;;;;;;5046216;28;20610;-82
2022/11/08 13:36:42;;;;;;;;;;;;;;;;;;5047168;28;19932;-81
2022/11/08 13:39:08;;;;;;;;;;;;;;;;;;5047783;28;20321;-81
2022/11/08 13:41:34;;;;;;;;;;;;;;;;;;5046926;28;19924;-82
2022/11/08 13:43:59;;;;;;;;;;;;;;;;;;5047384;28;20333;-81
2022/11/08 13:46:25;;;;;;;;;;;;;;;;;;5048246;28;19917;-83
2022/11/08 13:48:51;;;;;;;;;;;;;;;;;;5046997;28;20328;-81
2022/11/08 13:51:17;;;;;;;;;;;;;;;;;;5047571;28;19916;-81
2022/11/08 13:53:43;;;;;;;;;;;;;;;;;;5046779;28;19967;-80
2022/11/08 13:56:09;;;;;;;;;;;;;;;;;;5046800;28;20028;-80
2022/11/08 13:58:35;;;;;;;;;;;;;;;;;;5047345;28;20457;-80
2022/11/08 14:01:01;;;;;;;;;;;;;;;;;;5046123;28;19917;-82
2022/11/08 14:03:27;;;;;;;;;;;;;;;;;;5047644;28;19939;-81
2022/11/08 14:05:53;;;;;;;;;;;;;;;;;;5045831;28;20015;-82
2022/11/08 14:08:18;;;;;;;;;;;;;;;;;;5046814;28;19932;-80
2022/11/08 14:10:44;;;;;;;;;;;;;;;;;;5047546;28;19920;-80
2022/11/08 14:13:10;;;;;;;;;;;;;;;;;;5047241;28;19917;-80
2022/11/08 14:15:36;;;;;;;;;;;;;;;;;;5044725;28;20370;-81
2022/11/08 14:18:02;;;;;;;;;;;;;;;;;;5050803;28;19919;-81
2022/11/08 14:20:28;;;;;;;;;;;;;;;;;;5048447;28;19916;-79
2022/11/08 14:22:54;;;;;;;;;;;;;;;;;;5048738;28;19948;-81
2022/11/08 14:25:20;;;;;;;;;;;;;;;;;;5050906;28;19923;-80
2022/11/08 14:27:45;;;;;;;;;;;;;;;;;;5049100;28;19948;-81
2022/11/08 14:30:11;;;;;;;;;;;;;;;;;;5051446;28;20011;-82
2022/11/08 14:32:37;;;;;;;;;;;;;;;;;;5046126;28;19917;-81
2022/11/08 14:35:03;;;;;;;;;;;;;;;;;;5052340;28;19958;-82
2022/11/08 14:37:29;;;;;;;;;;;;;;;;;;5048526;28;19924;-80
2022/11/08 14:39:55;;;;;;;;;;;;;;;;;;5050736;28;19940;-80
2022/11/08 14:42:21;;;;;;;;;;;;;;;;;;5047355;28;19939;-81
2022/11/08 14:44:47;;;;;;;;;;;;;;;;;;5049821;28;19917;-81
2022/11/08 14:47:13;;;;;;;;;;;;;;;;;;5046666;28;19989;-81
2022/11/08 14:49:39;;;;;;;;;;;;;;;;;;5050455;28;19932;-81
2022/11/08 14:52:04;;;;;;;;;;;;;;;;;;5050137;28;20414;-82
2022/11/08 14:54:30;;;;;;;;;;;;;;;;;;5046576;28;19913;-82
2022/11/08 14:56:57;;;;;;;;;;;;;;;;;;5050632;28;19936;-80
2022/11/08 14:59:23;;;;;;;;;;;;;;;;;;5047619;28;19928;-77
2022/11/08 15:01:49;;;;;;;;;;;;;;;;;;5049528;28;20580;-81
2022/11/08 15:04:15;;;;;;;;;;;;;;;;;;5050609;28;19999;-79
2022/11/08 15:06:41;;;;;;;;;;;;;;;;;;5049847;28;19939;-81
2022/11/08 15:09:07;;;;;;;;;;;;;;;;;;5049748;28;20017;-79
2022/11/08 15:11:33;;;;;;;;;;;;;;;;;;5044283;28;19917;-80
2022/11/08 15:13:59;;;;;;;;;;;;;;;;;;5046511;28;19924;-80
2022/11/08 15:16:24;;;;;;;;;;;;;;;;;;5050150;28;20369;-82
2022/11/08 15:18:50;;;;;;;;;;;;;;;;;;5047844;28;19916;-81
2022/11/08 15:21:16;;;;;;;;;;;;;;;;;;5048550;28;20651;-82
2022/11/08 15:23:42;;;;;;;;;;;;;;;;;;5041921;28;19962;-83
2022/11/08 15:26:08;;;;;;;;;;;;;;;;;;5049508;28;19968;-82
2022/11/08 15:28:34;;;;;;;;;;;;;;;;;;5030557;28;19936;-83
2022/11/08 15:31:00;;;;;;;;;;;;;;;;;;5047025;28;19963;-79
2022/11/08 15:33:26;;;;;;;;;;;;;;;;;;5046994;28;19912;-81
2022/11/08 15:35:52;;;;;;;;;;;;;;;;;;5046661;28;19912;-78
2022/11/08 15:38:18;;;;;;;;;;;;;;;;;;5044403;28;20407;-80
2022/11/08 15:40:44;;;;;;;;;;;;;;;;;;5041385;28;20014;-77
2022/11/08 15:43:09;;;;;;;;;;;;;;;;;;5045987;28;20270;-77
2022/11/08 15:45:35;;;;;;;;;;;;;;;;;;5049478;28;19917;-77
2022/11/08 15:48:01;;;;;;;;;;;;;;;;;;5046614;28;19928;-79
2022/11/08 15:50:30;;;;;;;;;;;;;;;;;;5049204;28;19913;-78
2022/11/08 15:52:56;;;;;;;;;;;;;;;;;;5049364;28;19917;-77
2022/11/08 15:55:22;;;;;;;;;;;;;;;;;;5049762;28;19931;-78
2022/11/08 15:57:48;;;;;;;;;;;;;;;;;;5048653;28;19938;-79
2022/11/08 16:00:14;;;;;;;;;;;;;;;;;;5049154;28;19920;-76
2022/11/08 16:02:39;;;;;;;;;;;;;;;;;;5046939;28;20420;-80
2022/11/08 16:05:05;;;;;;;;;;;;;;;;;;5048626;28;19917;-78
2022/11/08 16:07:31;;;;;;;;;;;;;;;;;;5048610;28;19913;-77
2022/11/08 16:09:57;;;;;;;;;;;;;;;;;;5048109;28;19917;-74
2022/11/08 16:12:23;;;;;;;;;;;;;;;;;;5048683;28;19909;-78
2022/11/08 16:14:49;;;;;;;;;;;;;;;;;;5048622;28;19980;-77
2022/11/08 16:17:15;;;;;;;;;;;;;;;;;;5047761;28;19909;-75
2022/11/08 16:19:41;;;;;;;;;;;;;;;;;;5044537;28;19917;-76
2022/11/08 16:22:07;;;;;;;;;;;;;;;;;;5047308;28;19916;-75
2022/11/08 16:24:33;;;;;;;;;;;;;;;;;;5043645;28;19920;-75
2022/11/08 16:26:59;;;;;;;;;;;;;;;;;;5045247;28;19931;-77
2022/11/08 16:29:25;;;;;;;;;;;;;;;;;;5046157;28;19924;-79
2022/11/08 16:31:51;;;;;;;;;;;;;;;;;;5046616;28;19955;-79
2022/11/08 16:34:17;;;;;;;;;;;;;;;;;;5048158;28;19913;-74
2022/11/08 16:36:43;;;;;;;;;;;;;;;;;;5048068;28;20036;-78
2022/11/08 16:39:08;;;;;;;;;;;;;;;;;;5048105;28;20140;-77
2022/11/08 16:41:34;;;;;;;;;;;;;;;;;;5045512;28;19955;-79
2022/11/08 16:44:00;;;;;;;;;;;;;;;;;;5048405;28;20611;-78
2022/11/08 16:46:26;;;;;;;;;;;;;;;;;;5045078;28;19916;-76
2022/11/08 16:48:52;;;;;;;;;;;;;;;;;;5027616;28;19975;-79
2022/11/08 16:51:18;;;;;;;;;;;;;;;;;;5046265;28;19913;-80
2022/11/08 16:53:44;;;;;;;;;;;;;;;;;;5047269;28;19913;-80
2022/11/08 16:56:10;;;;;;;;;;;;;;;;;;5047960;28;20015;-79